createdAt,value
2019-02-28T00:01:04.825Z,4.15
2019-02-28T00:03:33.627Z,3.40
2019-02-28T00:06:02.484Z,3.85
2019-02-28T00:08:31.304Z,3.40
2019-02-28T00:11:02.050Z,3.83
2019-02-28T00:13:30.837Z,4.22
2019-02-28T00:16:00.182Z,3.77
2019-02-28T00:18:30.146Z,3.85
2019-02-28T00:20:59.072Z,4.20
2019-02-28T00:23:27.980Z,4.08
2019-02-28T00:25:56.746Z,4.05
2019-02-28T00:28:26.526Z,3.27
2019-02-28T00:30:55.529Z,3.87
2019-02-28T00:33:24.286Z,4.05
2019-02-28T00:35:53.152Z,3.98
2019-02-28T00:38:22.033Z,3.77
2019-02-28T00:40:50.935Z,3.87
2019-02-28T00:43:22.309Z,4.12
2019-02-28T00:45:50.314Z,3.83
2019-02-28T00:48:21.588Z,3.85
2019-02-28T00:50:49.723Z,4.15
2019-02-28T00:53:18.591Z,3.70
2019-02-28T00:55:47.393Z,3.47
2019-02-28T00:58:16.300Z,3.42
2019-02-28T01:00:45.166Z,4.22
2019-02-28T01:03:14.039Z,3.47
2019-02-28T01:05:42.881Z,3.92
2019-02-28T01:08:11.765Z,3.20
2019-02-28T01:10:40.585Z,3.30
2019-02-28T01:13:09.414Z,3.37
2019-02-28T01:15:41.217Z,4.10
2019-02-28T01:18:08.927Z,3.35
2019-02-28T01:20:37.785Z,3.42
2019-02-28T01:23:06.616Z,3.75
2019-02-28T01:25:37.177Z,3.77
2019-02-28T01:28:05.888Z,3.62
2019-02-28T01:30:37.073Z,3.37
2019-02-28T01:33:05.257Z,3.52
2019-02-28T01:35:34.120Z,3.75
2019-02-28T01:38:02.923Z,3.50
2019-02-28T01:40:31.656Z,3.58
2019-02-28T01:43:00.480Z,3.30
2019-02-28T01:45:29.306Z,3.75
2019-02-28T01:47:58.202Z,3.27
2019-02-28T01:50:29.696Z,3.55
2019-02-28T01:52:57.448Z,3.37
2019-02-28T01:55:26.226Z,3.50
2019-02-28T01:57:55.190Z,3.52
2019-02-28T02:00:24.512Z,3.50
2019-02-28T02:02:53.594Z,3.30
2019-02-28T02:05:22.495Z,3.40
2019-02-28T02:07:51.299Z,3.12
2019-02-28T02:10:22.223Z,3.55
2019-02-28T02:12:51.261Z,3.25
2019-02-28T02:15:20.101Z,3.35
2019-02-28T02:17:48.894Z,3.30
2019-02-28T02:20:17.747Z,2.67
2019-02-28T02:22:46.501Z,3.22
2019-02-28T02:25:15.392Z,3.15
2019-02-28T02:27:44.310Z,3.45
2019-02-28T02:30:16.482Z,2.90
2019-02-28T02:32:45.303Z,3.10
2019-02-28T02:35:14.093Z,3.10
2019-02-28T02:37:42.843Z,3.05
2019-02-28T02:40:12.094Z,2.95
2019-02-28T02:42:47.545Z,3.00
2019-02-28T02:45:11.892Z,3.12
2019-02-28T02:47:40.845Z,3.10
2019-02-28T02:50:11.566Z,3.72
2019-02-28T02:52:40.357Z,3.08
2019-02-28T02:55:09.246Z,3.08
2019-02-28T02:57:38.078Z,3.15
2019-02-28T03:00:13.817Z,3.20
2019-02-28T03:02:40.639Z,3.27
2019-02-28T03:05:09.448Z,2.92
2019-02-28T03:07:38.362Z,3.05
2019-02-28T03:10:08.041Z,3.15
2019-02-28T03:12:36.813Z,2.90
2019-02-28T03:15:05.869Z,3.33
2019-02-28T03:17:34.666Z,3.02
2019-02-28T03:20:07.418Z,2.90
2019-02-28T03:22:34.208Z,2.92
2019-02-28T03:25:03.110Z,3.37
2019-02-28T03:27:31.885Z,3.10
2019-02-28T03:30:00.867Z,3.20
2019-02-28T03:32:39.790Z,3.10
2019-02-28T03:35:00.621Z,3.05
2019-02-28T03:37:33.527Z,3.30
2019-02-28T03:40:04.359Z,3.05
2019-02-28T03:42:30.631Z,3.27
2019-02-28T03:44:59.464Z,3.40
2019-02-28T03:47:28.274Z,2.92
2019-02-28T03:49:57.114Z,2.83
2019-02-28T03:52:26.023Z,3.30
2019-02-28T03:54:54.797Z,3.20
2019-02-28T03:57:28.023Z,3.40
2019-02-28T03:59:56.728Z,3.02
2019-02-28T04:02:24.747Z,2.90
2019-02-28T04:04:53.647Z,2.92
2019-02-28T04:07:22.489Z,2.80
2019-02-28T04:09:51.255Z,2.90
2019-02-28T04:12:20.080Z,2.77
2019-02-28T04:14:48.920Z,2.85
2019-02-28T04:17:17.801Z,2.77
2019-02-28T04:19:46.589Z,3.02
2019-02-28T04:22:15.359Z,2.90
2019-02-28T04:24:46.235Z,2.87
2019-02-28T04:27:14.570Z,3.12
2019-02-28T04:29:43.338Z,3.22
2019-02-28T04:32:12.131Z,3.45
2019-02-28T04:34:41.066Z,3.00
2019-02-28T04:37:09.892Z,2.83
2019-02-28T04:39:38.702Z,3.27
2019-02-28T04:42:07.562Z,3.25
2019-02-28T04:44:36.460Z,3.40
2019-02-28T04:47:06.763Z,3.17
2019-02-28T04:49:35.834Z,2.98
2019-02-28T04:52:04.614Z,3.47
2019-02-28T04:54:33.422Z,3.12
2019-02-28T04:57:02.322Z,2.95
2019-02-28T04:59:31.530Z,3.05
2019-02-28T05:02:01.654Z,3.10
2019-02-28T05:04:33.252Z,3.12
2019-02-28T05:07:01.067Z,3.15
2019-02-28T05:09:29.972Z,3.33
2019-02-28T05:11:58.825Z,3.05
2019-02-28T05:14:27.642Z,2.70
2019-02-28T05:16:56.430Z,2.77
2019-02-28T05:19:25.191Z,2.98
2019-02-28T05:21:54.365Z,3.22
2019-02-28T05:24:23.255Z,3.25
2019-02-28T05:26:51.982Z,2.87
2019-02-28T05:29:20.799Z,3.12
2019-02-28T05:31:49.621Z,2.98
2019-02-28T05:34:18.480Z,3.12
2019-02-28T05:36:47.297Z,3.12
2019-02-28T05:39:16.133Z,3.20
2019-02-28T05:41:49.170Z,3.30
2019-02-28T05:44:15.454Z,3.83
2019-02-28T05:46:44.229Z,2.98
2019-02-28T05:49:13.004Z,3.20
2019-02-28T05:51:41.795Z,2.98
2019-02-28T05:54:15.935Z,3.37
2019-02-28T05:56:41.212Z,3.42
2019-02-28T05:59:10.130Z,3.05
2019-02-28T06:01:38.935Z,3.72
2019-02-28T06:04:07.864Z,3.47
2019-02-28T06:06:36.694Z,3.05
2019-02-28T06:09:06.724Z,3.25
2019-02-28T06:11:35.885Z,3.22
2019-02-28T06:14:04.790Z,3.37
2019-02-28T06:16:33.568Z,3.25
2019-02-28T06:19:04.590Z,3.25
2019-02-28T06:21:32.973Z,3.27
2019-02-28T06:24:01.776Z,3.15
2019-02-28T06:26:31.795Z,3.35
2019-02-28T06:29:04.604Z,3.75
2019-02-28T06:31:31.721Z,3.77
2019-02-28T06:34:00.594Z,3.20
2019-02-28T06:36:29.948Z,3.47
2019-02-28T06:38:58.891Z,4.00
2019-02-28T06:41:27.753Z,3.62
2019-02-28T06:43:56.509Z,3.60
2019-02-28T06:46:25.340Z,4.00
2019-02-28T06:48:54.267Z,5.17
2019-02-28T06:51:23.184Z,4.70
2019-02-28T06:53:52.039Z,4.35
2019-02-28T06:56:22.663Z,4.15
2019-02-28T06:58:51.636Z,4.62
2019-02-28T07:01:22.638Z,4.60
2019-02-28T07:03:53.663Z,4.47
2019-02-28T07:06:21.644Z,5.72
2019-02-28T07:08:50.396Z,8.63
2019-02-28T07:11:19.834Z,8.78
2019-02-28T07:13:49.528Z,9.95
2019-02-28T07:16:18.460Z,8.23
2019-02-28T07:18:52.824Z,7.33
2019-02-28T07:21:19.705Z,7.53
2019-02-28T07:23:48.508Z,8.08
2019-02-28T07:26:18.722Z,8.70
2019-02-28T07:28:48.916Z,7.75
2019-02-28T07:31:17.820Z,8.15
2019-02-28T07:33:48.494Z,7.58
2019-02-28T07:36:17.250Z,7.70
2019-02-28T07:38:46.134Z,7.62
2019-02-28T07:41:14.970Z,8.48
2019-02-28T07:43:46.270Z,7.25
2019-02-28T07:46:14.402Z,24.47
2019-02-28T07:48:43.195Z,31.68
2019-02-28T07:51:12.120Z,34.40
2019-02-28T07:53:41.933Z,35.28
2019-02-28T07:56:11.015Z,35.20
2019-02-28T07:58:39.949Z,35.73
2019-02-28T08:01:08.865Z,35.25
2019-02-28T08:03:37.687Z,37.30
2019-02-28T08:06:06.613Z,37.73
2019-02-28T08:08:35.426Z,38.08
2019-02-28T08:11:04.323Z,35.38
2019-02-28T08:13:34.545Z,31.45
2019-02-28T08:16:03.612Z,33.73
2019-02-28T08:18:32.374Z,32.15
2019-02-28T08:21:01.215Z,33.25
2019-02-28T08:23:31.282Z,30.97
2019-02-28T08:26:00.373Z,34.95
2019-02-28T08:28:35.867Z,31.37
2019-02-28T08:31:01.118Z,33.92
2019-02-28T08:33:29.876Z,40.40
2019-02-28T08:35:58.726Z,35.28
2019-02-28T08:38:30.073Z,30.95
2019-02-28T08:40:58.016Z,32.35
2019-02-28T08:43:27.509Z,30.00
2019-02-28T08:45:56.466Z,29.65
2019-02-28T08:48:31.496Z,29.63
2019-02-28T08:50:56.697Z,29.80
2019-02-28T08:53:25.570Z,30.30
2019-02-28T08:55:54.293Z,30.62
2019-02-28T08:58:23.049Z,27.58
2019-02-28T09:00:51.787Z,30.10
2019-02-28T09:03:20.661Z,27.27
2019-02-28T09:05:49.506Z,27.45
2019-02-28T09:08:18.311Z,27.22
2019-02-28T09:10:47.892Z,25.15
2019-02-28T09:13:16.847Z,24.90
2019-02-28T09:15:45.758Z,25.90
2019-02-28T09:18:14.577Z,26.15
2019-02-28T09:20:45.114Z,25.48
2019-02-28T09:23:14.005Z,24.87
2019-02-28T09:25:42.744Z,27.98
2019-02-28T09:28:13.024Z,25.97
2019-02-28T09:30:42.164Z,27.20
2019-02-28T09:33:11.029Z,24.18
2019-02-28T09:35:45.240Z,25.65
2019-02-28T09:38:13.331Z,24.18
2019-02-28T09:40:41.345Z,25.92
2019-02-28T09:43:10.363Z,27.30
2019-02-28T09:45:39.919Z,28.25
2019-02-28T09:48:09.653Z,27.73
2019-02-28T09:50:38.558Z,29.60
2019-02-28T09:53:07.419Z,26.52
2019-02-28T09:55:36.300Z,27.60
2019-02-28T09:58:05.169Z,27.48
2019-02-28T10:00:34.078Z,29.25
2019-02-28T10:03:02.924Z,28.23
2019-02-28T10:05:31.726Z,28.50
2019-02-28T10:08:02.851Z,29.35
2019-02-28T10:10:31.098Z,27.48
2019-02-28T10:12:59.973Z,29.40
2019-02-28T10:15:28.814Z,30.65
2019-02-28T10:18:00.721Z,28.40
2019-02-28T10:20:28.727Z,27.58
2019-02-28T10:22:57.701Z,30.92
2019-02-28T10:25:26.628Z,31.45
2019-02-28T10:28:01.646Z,30.17
2019-02-28T10:30:31.604Z,32.28
2019-02-28T10:32:56.593Z,29.98
2019-02-28T10:35:25.451Z,31.62
2019-02-28T10:37:58.533Z,28.60
2019-02-28T10:40:25.239Z,30.68
2019-02-28T10:42:54.091Z,30.90
2019-02-28T10:45:23.120Z,32.30
2019-02-28T10:47:52.060Z,34.45
2019-02-28T10:50:22.634Z,32.98
2019-02-28T10:52:51.565Z,32.60
2019-02-28T10:55:22.452Z,32.05
2019-02-28T10:57:51.140Z,29.45
2019-02-28T11:00:23.870Z,30.02
2019-02-28T11:02:54.065Z,27.05
2019-02-28T11:05:28.794Z,27.20
2019-02-28T11:07:57.537Z,25.45
2019-02-28T11:10:35.059Z,25.68
2019-02-28T11:13:01.336Z,25.52
2019-02-28T11:15:30.293Z,27.15
2019-02-28T11:17:59.273Z,28.42
2019-02-28T11:20:28.019Z,26.20
2019-02-28T11:22:56.803Z,31.65
2019-02-28T11:25:26.339Z,29.60
2019-02-28T11:27:55.328Z,34.15
2019-02-28T11:30:24.871Z,54.03
2019-02-28T11:32:53.869Z,42.15
2019-02-28T11:35:23.248Z,40.67
2019-02-28T11:37:52.882Z,41.85
2019-02-28T11:40:23.046Z,38.67
2019-02-28T11:42:52.023Z,39.08
2019-02-28T11:45:25.326Z,35.17
2019-02-28T11:47:54.403Z,35.53
2019-02-28T11:50:23.346Z,35.52
2019-02-28T11:52:52.220Z,32.98
2019-02-28T11:55:21.336Z,31.50
2019-02-28T11:57:50.263Z,31.07
2019-02-28T12:00:21.728Z,31.80
2019-02-28T12:02:53.207Z,32.17
2019-02-28T12:05:21.412Z,30.90
2019-02-28T12:07:50.369Z,28.75
2019-02-28T12:10:20.037Z,30.70
2019-02-28T12:12:49.003Z,29.25
2019-02-28T12:15:19.069Z,29.60
2019-02-28T12:17:47.877Z,29.02
2019-02-28T12:20:16.761Z,37.48
2019-02-28T12:22:49.229Z,41.58
2019-02-28T12:25:17.515Z,44.25
2019-02-28T12:27:46.363Z,40.90
2019-02-28T12:30:22.039Z,43.00
2019-02-28T12:32:52.546Z,39.03
2019-02-28T12:35:21.436Z,40.05
2019-02-28T12:37:53.818Z,37.40
2019-02-28T12:40:23.227Z,39.78
2019-02-28T12:42:52.117Z,41.28
2019-02-28T12:45:29.645Z,36.13
2019-02-28T12:47:58.631Z,36.77
2019-02-28T12:50:29.483Z,37.08
2019-02-28T12:52:58.330Z,37.55
2019-02-28T12:55:27.363Z,36.80
2019-02-28T12:57:57.809Z,34.43
2019-02-28T13:00:34.880Z,33.45
2019-02-28T13:03:03.846Z,31.37
2019-02-28T13:05:32.765Z,31.12
2019-02-28T13:08:01.690Z,31.77
2019-02-28T13:10:31.193Z,30.55
2019-02-28T13:13:06.406Z,30.10
2019-02-28T13:15:30.785Z,29.40
2019-02-28T13:17:59.702Z,30.92
2019-02-28T13:20:32.734Z,30.02
2019-02-28T13:23:01.099Z,30.35
2019-02-28T13:25:30.360Z,31.65
2019-02-28T13:27:59.327Z,27.50
2019-02-28T13:30:28.241Z,28.10
2019-02-28T13:32:57.302Z,28.83
2019-02-28T13:35:28.347Z,28.60
2019-02-28T13:37:57.196Z,28.23
2019-02-28T13:40:26.124Z,26.73
2019-02-28T13:42:55.093Z,26.62
2019-02-28T13:45:24.885Z,25.75
2019-02-28T13:47:53.938Z,23.83
2019-02-28T13:50:25.928Z,23.55
2019-02-28T13:52:54.863Z,27.52
2019-02-28T13:55:23.874Z,25.35
2019-02-28T13:57:52.870Z,27.20
2019-02-28T14:00:24.004Z,25.20
2019-02-28T14:02:55.104Z,24.60
2019-02-28T14:05:24.032Z,25.97
2019-02-28T14:07:52.938Z,24.57
2019-02-28T14:10:22.919Z,24.05
2019-02-28T14:12:53.187Z,23.32
2019-02-28T14:15:25.240Z,27.07
2019-02-28T14:17:54.266Z,23.80
2019-02-28T14:20:24.365Z,24.95
2019-02-28T14:22:53.678Z,25.55
2019-02-28T14:25:22.770Z,26.68
2019-02-28T14:27:51.730Z,24.65
2019-02-28T14:30:22.820Z,25.25
2019-02-28T14:32:52.613Z,26.77
2019-02-28T14:35:22.953Z,23.95
2019-02-28T14:37:55.861Z,22.07
2019-02-28T14:40:22.567Z,21.73
2019-02-28T14:42:51.598Z,22.62
2019-02-28T14:45:20.952Z,20.35
2019-02-28T14:47:56.911Z,21.42
2019-02-28T14:52:52.650Z,19.37
2019-02-28T14:55:21.629Z,16.90
2019-02-28T14:57:50.465Z,17.07
2019-02-28T15:00:22.410Z,17.20
2019-02-28T15:02:51.399Z,16.87
2019-02-28T15:05:21.538Z,15.95
2019-02-28T15:07:50.711Z,16.50
2019-02-28T15:10:20.002Z,16.37
2019-02-28T15:12:48.963Z,15.75
2019-02-28T15:15:19.334Z,14.87
2019-02-28T15:17:48.826Z,14.70
2019-02-28T15:20:17.694Z,14.35
2019-02-28T15:22:46.872Z,14.10
2019-02-28T15:25:18.477Z,14.73
2019-02-28T15:27:47.716Z,18.40
2019-02-28T15:30:22.151Z,14.35
2019-02-28T15:32:54.252Z,14.50
2019-02-28T15:35:22.306Z,15.05
2019-02-28T15:37:51.219Z,14.70
2019-02-28T15:40:24.729Z,14.87
2019-02-28T15:45:21.831Z,14.10
2019-02-28T15:47:59.056Z,14.93
2019-02-28T15:50:27.152Z,13.90
2019-02-28T15:52:56.325Z,14.38
2019-02-28T15:55:25.308Z,13.05
2019-02-28T15:57:54.175Z,13.08
2019-02-28T16:00:25.233Z,12.30
2019-02-28T16:02:54.098Z,11.88
2019-02-28T16:05:23.538Z,13.22
2019-02-28T16:07:52.495Z,12.25
2019-02-28T16:10:23.097Z,11.97
2019-02-28T16:12:52.109Z,13.60
2019-02-28T16:15:21.206Z,11.85
2019-02-28T16:17:50.089Z,12.07
2019-02-28T16:20:18.961Z,11.97
2019-02-28T16:22:52.093Z,11.22
2019-02-28T16:25:21.027Z,11.18
2019-02-28T16:27:49.885Z,13.53
2019-02-28T16:30:18.852Z,11.85
2019-02-28T16:32:49.161Z,10.53
2019-02-28T16:35:18.617Z,10.80
2019-02-28T16:37:47.538Z,10.60
2019-02-28T16:40:20.738Z,10.08
2019-02-28T16:42:48.416Z,11.00
2019-02-28T16:45:24.773Z,12.33
2019-02-28T16:47:55.623Z,12.25
2019-02-28T16:50:24.259Z,12.25
2019-02-28T16:52:53.350Z,12.68
2019-02-28T16:55:22.380Z,12.93
2019-02-28T16:57:51.434Z,11.35
2019-02-28T17:00:20.415Z,11.90
2019-02-28T17:02:50.350Z,12.80
2019-02-28T17:05:19.234Z,11.53
2019-02-28T17:07:48.262Z,13.15
2019-02-28T17:10:19.243Z,11.90
2019-02-28T17:13:11.505Z,12.25
2019-02-28T17:16:01.481Z,11.57
2019-02-28T17:18:29.288Z,11.28
2019-02-28T17:20:58.307Z,11.57
2019-02-28T17:23:27.345Z,11.75
2019-02-28T17:25:57.366Z,11.68
2019-02-28T17:28:46.477Z,11.53
2019-02-28T17:31:50.487Z,10.20
2019-02-28T17:34:23.698Z,10.48
2019-02-28T17:36:51.805Z,10.75
2019-02-28T17:39:21.199Z,12.25
2019-02-28T17:41:50.411Z,12.65
2019-02-28T17:44:49.799Z,12.40
2019-02-28T17:47:53.006Z,12.50
2019-02-28T17:50:50.964Z,13.08
2019-02-28T17:53:45.634Z,14.20
2019-02-28T17:56:44.640Z,13.22
2019-02-28T18:00:12.980Z,13.20
2019-02-28T18:03:19.422Z,14.15
2019-02-28T18:06:22.628Z,13.93
2019-02-28T18:09:17.731Z,15.83
2019-02-28T18:12:17.702Z,17.07
2019-02-28T18:15:12.106Z,14.58
2019-02-28T18:18:23.569Z,17.92
2019-02-28T18:21:37.489Z,19.07
2019-02-28T18:25:02.086Z,18.00
2019-02-28T18:27:47.838Z,16.87
2019-02-28T18:30:59.963Z,19.25
2019-02-28T18:33:29.465Z,17.85
2019-02-28T18:35:58.735Z,17.42
2019-02-28T18:38:29.279Z,18.65
2019-02-28T18:41:00.108Z,19.48
2019-02-28T18:43:29.726Z,18.40
2019-02-28T18:46:00.073Z,19.45
2019-02-28T18:48:30.136Z,17.80
2019-02-28T18:51:00.702Z,20.55
2019-02-28T18:53:30.142Z,19.32
2019-02-28T18:55:59.433Z,17.48
2019-02-28T18:58:29.045Z,20.00
2019-02-28T19:00:58.719Z,21.37
2019-02-28T19:03:28.770Z,18.77
2019-02-28T19:05:58.731Z,19.57
2019-02-28T19:08:28.058Z,19.10
2019-02-28T19:10:57.510Z,17.15
2019-02-28T19:13:27.009Z,15.95
2019-02-28T19:15:56.744Z,17.00
2019-02-28T19:18:25.982Z,15.55
2019-02-28T19:20:55.821Z,15.00
2019-02-28T19:23:26.371Z,16.70
2019-02-28T19:25:55.421Z,14.95
2019-02-28T19:28:25.904Z,16.20
2019-02-28T19:30:55.459Z,15.30
2019-02-28T19:33:25.067Z,14.80
2019-02-28T19:35:54.335Z,14.18
2019-02-28T19:38:24.133Z,14.38
2019-02-28T19:40:53.903Z,14.00
2019-02-28T19:43:24.203Z,13.70
2019-02-28T19:45:55.378Z,13.38
2019-02-28T19:48:25.437Z,14.35
2019-02-28T19:50:56.591Z,12.95
2019-02-28T19:53:26.222Z,13.83
2019-02-28T19:55:56.799Z,13.40
2019-02-28T19:58:26.930Z,14.10
2019-02-28T20:00:57.117Z,14.05
2019-02-28T20:03:26.814Z,13.35
2019-02-28T20:05:55.974Z,13.25
2019-02-28T20:08:26.130Z,13.45
2019-02-28T20:10:56.011Z,13.15
2019-02-28T20:13:26.262Z,12.47
2019-02-28T20:15:56.212Z,13.32
2019-02-28T20:18:25.828Z,11.63
2019-02-28T20:20:56.017Z,12.13
2019-02-28T20:23:25.616Z,13.55
2019-02-28T20:25:55.266Z,12.00
2019-02-28T20:28:25.884Z,12.53
2019-02-28T20:30:55.732Z,12.43
2019-02-28T20:33:25.779Z,11.38
2019-02-28T20:35:55.865Z,12.93
2019-02-28T20:38:26.370Z,12.20
2019-02-28T20:40:56.862Z,12.50
2019-02-28T20:43:26.774Z,12.25
2019-02-28T20:45:56.897Z,12.88
2019-02-28T20:48:26.302Z,13.48
2019-02-28T20:50:56.485Z,11.55
2019-02-28T20:53:26.877Z,13.13
2019-02-28T20:55:56.798Z,12.40
2019-02-28T20:58:27.058Z,12.60
2019-02-28T21:00:57.398Z,12.40
2019-02-28T21:03:27.138Z,12.30
2019-02-28T21:05:57.036Z,12.15
2019-02-28T21:08:28.030Z,12.78
2019-02-28T21:10:57.546Z,12.58
2019-02-28T21:13:28.008Z,12.33
2019-02-28T21:15:57.602Z,11.68
2019-02-28T21:18:27.925Z,12.73
2019-02-28T21:20:57.303Z,12.43
2019-02-28T21:23:26.547Z,12.23
2019-02-28T21:25:57.374Z,13.03
2019-02-28T21:28:26.741Z,12.65
2019-02-28T21:30:56.135Z,12.85
2019-02-28T21:33:25.289Z,12.13
2019-02-28T21:35:54.341Z,12.18
2019-02-28T21:38:23.718Z,12.00
2019-02-28T21:40:53.261Z,11.75
2019-02-28T21:43:22.595Z,12.30
2019-02-28T21:45:51.835Z,12.60
2019-02-28T21:48:21.413Z,12.37
2019-02-28T21:50:50.702Z,12.70
2019-02-28T21:53:19.603Z,13.00
2019-02-28T21:55:49.075Z,12.25
2019-02-28T21:58:17.965Z,12.40
2019-02-28T22:00:46.978Z,13.20
2019-02-28T22:03:15.914Z,16.30
2019-02-28T22:05:45.068Z,14.53
2019-02-28T22:08:14.111Z,13.58
2019-02-28T22:10:42.893Z,13.20
2019-02-28T22:13:12.230Z,12.33
2019-02-28T22:15:41.225Z,13.00
2019-02-28T22:18:10.076Z,12.30
2019-02-28T22:20:39.019Z,12.85
2019-02-28T22:23:07.969Z,11.15
2019-02-28T22:25:36.809Z,11.38
2019-02-28T22:28:05.709Z,11.35
2019-02-28T22:30:56.524Z,11.08
2019-02-28T22:33:56.459Z,10.20
2019-02-28T22:36:34.844Z,10.75
2019-02-28T22:39:03.898Z,10.98
2019-02-28T22:41:32.813Z,11.40
2019-02-28T22:44:01.677Z,10.70
2019-02-28T22:46:30.641Z,11.12
2019-02-28T22:48:59.517Z,10.15
2019-02-28T22:51:28.379Z,10.32
2019-02-28T22:53:57.159Z,10.00
2019-02-28T22:56:25.977Z,10.50
2019-02-28T22:58:54.858Z,10.32
2019-02-28T23:01:23.863Z,9.45
2019-02-28T23:03:52.684Z,10.85
2019-02-28T23:06:21.539Z,10.03
2019-02-28T23:08:50.466Z,9.88
2019-02-28T23:11:19.383Z,9.63
2019-02-28T23:13:48.196Z,9.73
2019-02-28T23:16:17.075Z,9.88
2019-02-28T23:18:46.030Z,9.55
2019-02-28T23:21:14.872Z,9.50
2019-02-28T23:23:43.756Z,9.83
2019-02-28T23:26:14.268Z,10.53
2019-02-28T23:29:06.311Z,10.35
2019-02-28T23:32:08.470Z,9.55
2019-02-28T23:34:39.892Z,9.20
2019-02-28T23:37:08.795Z,9.15
2019-02-28T23:39:37.629Z,8.60
2019-02-28T23:42:06.485Z,9.90
2019-02-28T23:44:35.305Z,9.55
2019-02-28T23:47:04.227Z,8.80
2019-02-28T23:49:33.076Z,9.58
2019-02-28T23:52:01.853Z,9.45
2019-02-28T23:54:30.701Z,9.85
2019-02-28T23:56:59.737Z,7.90
2019-02-28T23:59:28.634Z,9.00
